createdAt,value
2018-11-02T00:00:54.232Z,100623.05
2018-11-02T00:01:59.872Z,100624.75
2018-11-02T00:03:05.857Z,100628.45
2018-11-02T00:04:11.353Z,100626.70
2018-11-02T00:05:17.141Z,100627.56
2018-11-02T00:06:22.885Z,100628.88
2018-11-02T00:07:28.250Z,100635.66
2018-11-02T00:08:36.572Z,100631.95
2018-11-02T00:09:42.080Z,100633.97
2018-11-02T00:10:47.567Z,100633.20
2018-11-02T00:11:53.173Z,100631.85
2018-11-02T00:12:59.130Z,100634.80
2018-11-02T00:14:04.823Z,100636.91
2018-11-02T00:15:10.355Z,100641.97
2018-11-02T00:16:15.820Z,100638.57
2018-11-02T00:17:21.288Z,100638.57
2018-11-02T00:18:26.741Z,100643.69
2018-11-02T00:19:33.434Z,100640.75
2018-11-02T00:20:38.965Z,100640.55
2018-11-02T00:21:44.461Z,100640.20
2018-11-02T00:22:49.896Z,100646.50
2018-11-02T00:23:55.418Z,100650.34
2018-11-02T00:25:00.918Z,100647.27
2018-11-02T00:26:06.745Z,100649.41
2018-11-02T00:27:12.421Z,100654.84
2018-11-02T00:28:17.921Z,100658.72
2018-11-02T00:29:23.429Z,100649.76
2018-11-02T00:30:28.916Z,100659.14
2018-11-02T00:31:34.392Z,100662.15
2018-11-02T00:32:40.623Z,100663.47
2018-11-02T00:33:46.073Z,100667.69
2018-11-02T00:34:51.568Z,100666.38
2018-11-02T00:35:57.017Z,100662.08
2018-11-02T00:37:02.714Z,100659.07
2018-11-02T00:38:08.228Z,100663.71
2018-11-02T00:39:13.718Z,100662.91
2018-11-02T00:40:19.264Z,100668.03
2018-11-02T00:41:24.837Z,100665.38
2018-11-02T00:42:30.672Z,100667.90
2018-11-02T00:43:36.189Z,100665.72
2018-11-02T00:44:41.642Z,100665.72
2018-11-02T00:45:47.130Z,100676.31
2018-11-02T00:46:52.608Z,100673.27
2018-11-02T00:47:58.040Z,100671.60
2018-11-02T00:49:04.152Z,100670.59
2018-11-02T00:50:11.737Z,100671.47
2018-11-02T00:51:17.204Z,100671.13
2018-11-02T00:52:22.717Z,100670.87
2018-11-02T00:53:28.192Z,100674.34
2018-11-02T00:54:33.653Z,100671.47
2018-11-02T00:55:39.118Z,100677.80
2018-11-02T00:56:44.685Z,100677.80
2018-11-02T00:57:50.278Z,100679.08
2018-11-02T00:58:56.258Z,100678.15
2018-11-02T01:00:02.212Z,100688.05
2018-11-02T01:01:07.697Z,100687.12
2018-11-02T01:02:13.133Z,100683.66
2018-11-02T01:03:18.679Z,100687.53
2018-11-02T01:04:24.137Z,100691.09
2018-11-02T01:05:29.714Z,100685.45
2018-11-02T01:06:35.222Z,100687.88
2018-11-02T01:07:40.826Z,100685.31
2018-11-02T01:08:46.328Z,100687.53
2018-11-02T01:09:51.793Z,100691.69
2018-11-02T01:10:57.237Z,100692.52
2018-11-02T01:12:02.712Z,100688.30
2018-11-02T01:13:08.225Z,100691.72
2018-11-02T01:14:13.745Z,100692.62
2018-11-02T01:15:19.240Z,100698.96
2018-11-02T01:16:24.752Z,100700.24
2018-11-02T01:17:30.325Z,100694.59
2018-11-02T01:18:35.805Z,100694.32
2018-11-02T01:19:41.260Z,100691.66
2018-11-02T01:20:46.708Z,100697.75
2018-11-02T01:21:52.310Z,100691.41
2018-11-02T01:22:57.796Z,100704.67
2018-11-02T01:24:03.403Z,100697.85
2018-11-02T01:25:09.588Z,100697.40
2018-11-02T01:26:15.198Z,100698.96
2018-11-02T01:27:20.779Z,100702.36
2018-11-02T01:28:26.232Z,100699.31
2018-11-02T01:29:31.727Z,100708.31
2018-11-02T01:30:37.225Z,100711.22
2018-11-02T01:31:42.824Z,100709.45
2018-11-02T01:32:48.260Z,100705.27
2018-11-02T01:33:53.798Z,100710.05
2018-11-02T01:34:59.406Z,100719.91
2018-11-02T01:36:05.102Z,100713.78
2018-11-02T01:37:10.585Z,100722.72
2018-11-02T01:38:16.036Z,100718.50
2018-11-02T01:39:21.723Z,100721.92
2018-11-02T01:40:27.220Z,100716.77
2018-11-02T01:41:32.644Z,100719.71
2018-11-02T01:42:38.090Z,100719.33
2018-11-02T01:43:43.691Z,100722.44
2018-11-02T01:44:49.178Z,100720.64
2018-11-02T01:45:54.899Z,100721.89
2018-11-02T01:47:00.396Z,100722.34
2018-11-02T01:48:06.342Z,100726.46
2018-11-02T01:49:11.838Z,100729.41
2018-11-02T01:50:17.375Z,100725.18
2018-11-02T01:51:22.918Z,100725.60
2018-11-02T01:52:28.384Z,100726.36
2018-11-02T01:53:33.883Z,100730.59
2018-11-02T01:54:39.485Z,100725.50
2018-11-02T01:55:44.956Z,100731.11
2018-11-02T01:56:50.455Z,100722.48
2018-11-02T01:57:55.896Z,100728.82
2018-11-02T01:59:01.386Z,100734.81
2018-11-02T02:00:08.409Z,100731.01
2018-11-02T02:01:13.897Z,100724.94
2018-11-02T02:02:19.558Z,100726.33
2018-11-02T02:03:25.058Z,100724.08
2018-11-02T02:04:30.625Z,100726.26
2018-11-02T02:05:36.157Z,100726.81
2018-11-02T02:06:41.713Z,100722.03
2018-11-02T02:07:47.201Z,100730.03
2018-11-02T02:08:52.773Z,100725.29
2018-11-02T02:09:58.256Z,100732.59
2018-11-02T02:11:03.681Z,100722.80
2018-11-02T02:12:09.161Z,100728.75
2018-11-02T02:13:14.637Z,100728.69
2018-11-02T02:14:20.104Z,100729.14
2018-11-02T02:15:25.617Z,100719.02
2018-11-02T02:16:31.072Z,100728.41
2018-11-02T02:17:36.629Z,100721.97
2018-11-02T02:18:42.102Z,100725.77
2018-11-02T02:19:47.613Z,100723.70
2018-11-02T02:20:53.090Z,100725.02
2018-11-02T02:21:58.580Z,100725.05
2018-11-02T02:23:04.037Z,100724.18
2018-11-02T02:24:09.522Z,100718.19
2018-11-02T02:25:15.010Z,100718.19
2018-11-02T02:26:20.468Z,100719.85
2018-11-02T02:27:25.942Z,100722.34
2018-11-02T02:28:31.622Z,100720.30
2018-11-02T02:29:37.390Z,100721.48
2018-11-02T02:30:42.862Z,100718.36
2018-11-02T02:31:48.349Z,100718.50
2018-11-02T02:32:53.886Z,100726.09
2018-11-02T02:33:59.384Z,100721.89
2018-11-02T02:35:04.985Z,100721.97
2018-11-02T02:36:10.601Z,100724.01
2018-11-02T02:37:16.025Z,100726.19
2018-11-02T02:38:21.572Z,100721.09
2018-11-02T02:39:27.065Z,100730.83
2018-11-02T02:40:32.576Z,100731.39
2018-11-02T02:41:38.285Z,100734.84
2018-11-02T02:42:43.730Z,100738.14
2018-11-02T02:43:49.349Z,100734.30
2018-11-02T02:44:54.799Z,100733.43
2018-11-02T02:46:00.270Z,100732.11
2018-11-02T02:47:05.904Z,100740.73
2018-11-02T02:48:11.503Z,100733.88
2018-11-02T02:49:16.998Z,100733.43
2018-11-02T02:50:22.485Z,100738.94
2018-11-02T02:51:27.993Z,100741.47
2018-11-02T02:52:33.472Z,100740.98
2018-11-02T02:53:38.882Z,100738.84
2018-11-02T02:54:44.386Z,100741.61
2018-11-02T02:55:49.836Z,100741.70
2018-11-02T02:56:55.389Z,100739.56
2018-11-02T02:58:00.890Z,100745.45
2018-11-02T02:59:06.378Z,100746.28
2018-11-02T03:00:13.768Z,100747.05
2018-11-02T03:01:19.289Z,100750.44
2018-11-02T03:02:24.875Z,100748.78
2018-11-02T03:03:30.317Z,100747.53
2018-11-02T03:04:37.001Z,100755.08
2018-11-02T03:05:42.440Z,100756.75
2018-11-02T03:06:47.913Z,100756.44
2018-11-02T03:07:53.467Z,100760.98
2018-11-02T03:08:58.992Z,100758.55
2018-11-02T03:10:04.662Z,100762.77
2018-11-02T03:11:10.335Z,100765.82
2018-11-02T03:12:15.682Z,100760.80
2018-11-02T03:13:21.168Z,100767.62
2018-11-02T03:14:26.637Z,100769.31
2018-11-02T03:15:32.084Z,100764.58
2018-11-02T03:16:37.560Z,100769.77
2018-11-02T03:17:43.002Z,100775.24
2018-11-02T03:18:48.992Z,100774.83
2018-11-02T03:19:54.426Z,100773.86
2018-11-02T03:20:59.928Z,100780.59
2018-11-02T03:22:05.672Z,100781.03
2018-11-02T03:23:11.174Z,100775.94
2018-11-02T03:24:16.725Z,100774.73
2018-11-02T03:25:22.285Z,100781.14
2018-11-02T03:26:27.755Z,100782.42
2018-11-02T03:27:33.245Z,100779.09
2018-11-02T03:28:38.750Z,100787.30
2018-11-02T03:29:44.302Z,100788.48
2018-11-02T03:30:49.725Z,100787.58
2018-11-02T03:31:55.207Z,100787.20
2018-11-02T03:33:00.632Z,100783.25
2018-11-02T03:34:06.525Z,100786.75
2018-11-02T03:35:12.046Z,100790.28
2018-11-02T03:36:17.481Z,100786.81
2018-11-02T03:37:22.970Z,100792.25
2018-11-02T03:38:28.472Z,100793.16
2018-11-02T03:39:33.962Z,100793.61
2018-11-02T03:40:39.448Z,100797.35
2018-11-02T03:41:44.898Z,100791.14
2018-11-02T03:42:50.389Z,100795.09
2018-11-02T03:43:55.812Z,100800.63
2018-11-02T03:45:01.298Z,100805.72
2018-11-02T03:46:07.101Z,100795.09
2018-11-02T03:47:12.600Z,100797.75
2018-11-02T03:48:18.175Z,100799.80
2018-11-02T03:49:23.624Z,100799.41
2018-11-02T03:50:29.106Z,100799.37
2018-11-02T03:51:34.590Z,100799.37
2018-11-02T03:52:40.472Z,100800.63
2018-11-02T03:53:46.025Z,100805.02
2018-11-02T03:54:51.883Z,100809.34
2018-11-02T03:55:57.685Z,100806.30
2018-11-02T03:57:03.296Z,100809.73
2018-11-02T03:58:08.757Z,100811.05
2018-11-02T03:59:14.220Z,100811.17
2018-11-02T04:00:20.177Z,100812.87
2018-11-02T04:01:25.749Z,100819.34
2018-11-02T04:02:31.246Z,100821.01
2018-11-02T04:03:36.853Z,100825.23
2018-11-02T04:04:42.327Z,100824.27
2018-11-02T04:05:47.793Z,100829.34
2018-11-02T04:06:53.274Z,100835.27
2018-11-02T04:07:58.677Z,100839.05
2018-11-02T04:09:04.738Z,100840.39
2018-11-02T04:10:11.435Z,100845.48
2018-11-02T04:11:16.864Z,100845.91
2018-11-02T04:12:22.374Z,100848.41
2018-11-02T04:13:27.821Z,100850.00
2018-11-02T04:14:33.452Z,100852.60
2018-11-02T04:15:43.952Z,100852.15
2018-11-02T04:16:49.429Z,100858.98
2018-11-02T04:17:54.953Z,100862.25
2018-11-02T04:19:00.417Z,100860.90
2018-11-02T04:20:07.912Z,100860.42
2018-11-02T04:21:13.437Z,100866.03
2018-11-02T04:22:19.014Z,100868.88
2018-11-02T04:23:24.454Z,100866.41
2018-11-02T04:24:29.867Z,100869.08
2018-11-02T04:25:35.357Z,100868.20
2018-11-02T04:26:41.310Z,100874.48
2018-11-02T04:27:46.841Z,100880.90
2018-11-02T04:28:52.447Z,100881.80
2018-11-02T04:29:59.582Z,100877.59
2018-11-02T04:31:05.898Z,100881.70
2018-11-02T04:32:11.391Z,100889.91
2018-11-02T04:33:16.854Z,100891.22
2018-11-02T04:34:22.436Z,100892.95
2018-11-02T04:35:28.906Z,100895.90
2018-11-02T04:36:34.654Z,100905.80
2018-11-02T04:37:40.149Z,100898.75
2018-11-02T04:38:45.663Z,100919.88
2018-11-02T04:39:51.157Z,100919.95
2018-11-02T04:40:56.765Z,100916.22
2018-11-02T04:42:02.251Z,100923.41
2018-11-02T04:43:07.802Z,100938.75
2018-11-02T04:44:13.373Z,100944.30
2018-11-02T04:45:22.913Z,100946.89
2018-11-02T04:46:32.263Z,100951.23
2018-11-02T04:47:42.402Z,100954.22
2018-11-02T04:48:56.628Z,100951.63
2018-11-02T04:50:05.226Z,100959.67
2018-11-02T04:51:10.753Z,100959.70
2018-11-02T04:52:16.177Z,100964.14
2018-11-02T04:53:21.861Z,100978.77
2018-11-02T04:54:27.362Z,100984.81
2018-11-02T04:55:32.880Z,100993.33
2018-11-02T04:56:38.320Z,100993.33
2018-11-02T04:57:43.853Z,101003.14
2018-11-02T04:58:49.749Z,101000.34
2018-11-02T04:59:55.229Z,101001.55
2018-11-02T05:01:00.793Z,101005.41
2018-11-02T05:02:06.499Z,101014.86
2018-11-02T05:03:11.978Z,101008.25
2018-11-02T05:04:17.529Z,101016.27
2018-11-02T05:05:23.013Z,101021.08
2018-11-02T05:06:28.509Z,101024.95
2018-11-02T05:07:33.933Z,101028.33
2018-11-02T05:08:39.340Z,101034.36
2018-11-02T05:09:45.293Z,101029.78
2018-11-02T05:10:50.740Z,101031.13
2018-11-02T05:11:56.414Z,101034.48
2018-11-02T05:13:01.907Z,101039.24
2018-11-02T05:14:07.832Z,101043.45
2018-11-02T05:15:13.301Z,101046.11
2018-11-02T05:16:18.788Z,101052.00
2018-11-02T05:17:24.305Z,101052.02
2018-11-02T05:18:30.013Z,101057.52
2018-11-02T05:19:35.521Z,101058.28
2018-11-02T05:20:40.985Z,101058.28
2018-11-02T05:21:46.408Z,101060.39
2018-11-02T05:22:51.829Z,101063.03
2018-11-02T05:23:57.276Z,101063.50
2018-11-02T05:25:02.806Z,101071.98
2018-11-02T05:26:08.632Z,101070.27
2018-11-02T05:27:14.117Z,101063.38
2018-11-02T05:28:19.524Z,101078.80
2018-11-02T05:29:25.217Z,101068.16
2018-11-02T05:30:30.683Z,101078.81
2018-11-02T05:31:36.214Z,101084.36
2018-11-02T05:32:41.866Z,101089.12
2018-11-02T05:33:47.421Z,101095.05
2018-11-02T05:34:52.949Z,101093.35
2018-11-02T05:35:58.720Z,101101.50
2018-11-02T05:37:04.196Z,101102.78
2018-11-02T05:38:09.772Z,101107.48
2018-11-02T05:39:15.267Z,101106.18
2018-11-02T05:40:20.761Z,101106.13
2018-11-02T05:41:26.310Z,101112.07
2018-11-02T05:42:31.728Z,101110.91
2018-11-02T05:43:37.240Z,101116.42
2018-11-02T05:44:42.964Z,101112.61
2018-11-02T05:45:48.445Z,101119.80
2018-11-02T05:46:53.929Z,101121.93
2018-11-02T05:47:59.450Z,101126.62
2018-11-02T05:49:04.929Z,101128.82
2018-11-02T05:50:10.468Z,101131.77
2018-11-02T05:51:15.985Z,101138.16
2018-11-02T05:52:21.432Z,101143.70
2018-11-02T05:53:26.876Z,101143.75
2018-11-02T05:54:32.446Z,101145.82
2018-11-02T05:55:37.917Z,101150.50
2018-11-02T05:56:43.525Z,101152.61
2018-11-02T05:57:49.045Z,101161.17
2018-11-02T05:58:54.448Z,101163.28
2018-11-02T05:59:59.936Z,101161.88
2018-11-02T06:01:06.357Z,101163.59
2018-11-02T06:02:11.797Z,101172.11
2018-11-02T06:03:17.205Z,101169.18
2018-11-02T06:04:22.709Z,101167.06
2018-11-02T06:05:28.195Z,101173.88
2018-11-02T06:06:33.669Z,101174.77
2018-11-02T06:07:39.509Z,101172.27
2018-11-02T06:08:44.982Z,101176.08
2018-11-02T06:09:50.480Z,101177.25
2018-11-02T06:10:55.888Z,101185.06
2018-11-02T06:12:01.444Z,101190.23
2018-11-02T06:13:07.109Z,101186.38
2018-11-02T06:14:12.533Z,101196.77
2018-11-02T06:15:18.097Z,101198.88
2018-11-02T06:16:23.590Z,101197.62
2018-11-02T06:17:29.069Z,101202.31
2018-11-02T06:18:34.670Z,101208.77
2018-11-02T06:19:40.233Z,101211.31
2018-11-02T06:20:45.687Z,101212.98
2018-11-02T06:21:51.248Z,101212.16
2018-11-02T06:22:56.704Z,101214.82
2018-11-02T06:24:02.272Z,101222.06
2018-11-02T06:25:08.422Z,101224.63
2018-11-02T06:26:13.925Z,101226.81
2018-11-02T06:27:19.413Z,101226.81
2018-11-02T06:28:25.087Z,101229.42
2018-11-02T06:29:30.576Z,101232.01
2018-11-02T06:30:36.344Z,101232.43
2018-11-02T06:31:43.015Z,101232.43
2018-11-02T06:32:49.100Z,101239.59
2018-11-02T06:33:54.568Z,101237.53
2018-11-02T06:35:00.096Z,101244.77
2018-11-02T06:36:05.872Z,101246.07
2018-11-02T06:37:11.311Z,101249.06
2018-11-02T06:38:16.892Z,101255.05
2018-11-02T06:39:22.432Z,101254.27
2018-11-02T06:40:28.052Z,101259.78
2018-11-02T06:41:33.528Z,101264.94
2018-11-02T06:42:39.005Z,101264.94
2018-11-02T06:43:44.432Z,101267.03
2018-11-02T06:44:49.960Z,101268.83
2018-11-02T06:45:55.351Z,101271.83
2018-11-02T06:47:00.856Z,101277.86
2018-11-02T06:48:06.600Z,101287.21
2018-11-02T06:49:12.114Z,101278.23
2018-11-02T06:50:17.662Z,101286.72
2018-11-02T06:51:23.172Z,101289.73
2018-11-02T06:52:28.642Z,101292.28
2018-11-02T06:53:34.137Z,101297.91
2018-11-02T06:54:39.622Z,101302.19
2018-11-02T06:55:45.392Z,101303.44
2018-11-02T06:56:51.014Z,101304.28
2018-11-02T06:57:56.662Z,101304.27
2018-11-02T06:59:02.142Z,101312.30
2018-11-02T07:00:11.905Z,101308.02
2018-11-02T07:01:17.182Z,101316.97
2018-11-02T07:02:22.774Z,101322.06
2018-11-02T07:03:28.312Z,101320.29
2018-11-02T07:04:33.778Z,101328.00
2018-11-02T07:05:39.312Z,101335.24
2018-11-02T07:06:44.786Z,101330.12
2018-11-02T07:07:50.330Z,101330.11
2018-11-02T07:08:55.764Z,101331.81
2018-11-02T07:10:01.255Z,101331.75
2018-11-02T07:11:06.769Z,101344.51
2018-11-02T07:12:12.217Z,101342.42
2018-11-02T07:13:17.741Z,101339.50
2018-11-02T07:14:23.215Z,101347.55
2018-11-02T07:15:28.755Z,101348.03
2018-11-02T07:16:34.257Z,101355.21
2018-11-02T07:17:39.746Z,101355.21
2018-11-02T07:18:45.216Z,101361.17
2018-11-02T07:19:50.628Z,101364.28
2018-11-02T07:20:56.056Z,101362.58
2018-11-02T07:22:01.574Z,101367.23
2018-11-02T07:23:08.310Z,101372.79
2018-11-02T07:24:13.857Z,101374.44
2018-11-02T07:25:19.391Z,101373.97
2018-11-02T07:26:25.236Z,101383.77
2018-11-02T07:27:31.038Z,101381.22
2018-11-02T07:28:36.602Z,101393.19
2018-11-02T07:29:42.024Z,101393.66
2018-11-02T07:30:47.430Z,101393.22
2018-11-02T07:31:52.864Z,101399.59
2018-11-02T07:32:58.386Z,101402.58
2018-11-02T07:34:03.860Z,101405.95
2018-11-02T07:35:10.256Z,101411.02
2018-11-02T07:36:15.690Z,101411.00
2018-11-02T07:37:21.108Z,101417.83
2018-11-02T07:38:26.575Z,101417.01
2018-11-02T07:39:33.555Z,101418.28
2018-11-02T07:40:38.972Z,101423.42
2018-11-02T07:41:44.409Z,101428.08
2018-11-02T07:42:50.044Z,101429.77
2018-11-02T07:43:55.721Z,101429.36
2018-11-02T07:45:01.226Z,101431.48
2018-11-02T07:46:06.834Z,101430.22
2018-11-02T07:47:12.313Z,101437.91
2018-11-02T07:48:17.734Z,101437.03
2018-11-02T07:49:23.295Z,101439.19
2018-11-02T07:50:28.749Z,101441.83
2018-11-02T07:51:34.212Z,101441.75
2018-11-02T07:52:39.770Z,101439.16
2018-11-02T07:53:45.093Z,101442.10
2018-11-02T07:54:50.606Z,101442.56
2018-11-02T07:55:56.032Z,101439.59
2018-11-02T07:57:01.480Z,101443.45
2018-11-02T07:58:07.178Z,101445.19
2018-11-02T07:59:12.708Z,101447.75
2018-11-02T08:00:18.684Z,101443.52
2018-11-02T08:01:24.124Z,101448.22
2018-11-02T08:02:29.615Z,101455.43
2018-11-02T08:03:35.199Z,101460.11
2018-11-02T08:04:40.672Z,101458.39
2018-11-02T08:05:46.256Z,101464.41
2018-11-02T08:06:51.782Z,101468.71
2018-11-02T08:07:57.380Z,101464.82
2018-11-02T08:09:02.842Z,101462.66
2018-11-02T08:10:08.985Z,101466.88
2018-11-02T08:11:14.471Z,101471.52
2018-11-02T08:12:19.848Z,101464.63
2018-11-02T08:13:25.278Z,101468.81
2018-11-02T08:14:30.808Z,101467.42
2018-11-02T08:15:36.290Z,101472.99
2018-11-02T08:16:42.043Z,101471.22
2018-11-02T08:17:47.621Z,101472.41
2018-11-02T08:18:52.964Z,101477.55
2018-11-02T08:19:58.441Z,101478.78
2018-11-02T08:21:03.957Z,101483.38
2018-11-02T08:22:09.388Z,101482.96
2018-11-02T08:23:15.065Z,101480.28
2018-11-02T08:24:20.521Z,101490.09
2018-11-02T08:25:25.938Z,101488.22
2018-11-02T08:26:31.462Z,101489.30
2018-11-02T08:27:36.901Z,101489.98
2018-11-02T08:28:42.421Z,101489.81
2018-11-02T08:29:47.912Z,101487.91
2018-11-02T08:30:53.411Z,101489.44
2018-11-02T08:31:58.897Z,101490.93
2018-11-02T08:33:04.356Z,101493.34
2018-11-02T08:34:09.817Z,101500.57
2018-11-02T08:35:15.297Z,101494.23
2018-11-02T08:36:20.758Z,101499.83
2018-11-02T08:37:26.209Z,101507.74
2018-11-02T08:38:31.682Z,101508.84
2018-11-02T08:39:37.156Z,101505.47
2018-11-02T08:40:42.734Z,101506.27
2018-11-02T08:41:48.185Z,101508.09
2018-11-02T08:42:53.646Z,101512.04
2018-11-02T08:43:59.114Z,101515.08
2018-11-02T08:45:04.701Z,101517.71
2018-11-02T08:46:10.145Z,101520.70
2018-11-02T08:47:15.616Z,101526.23
2018-11-02T08:48:21.210Z,101527.05
2018-11-02T08:49:26.741Z,101530.88
2018-11-02T08:50:32.529Z,101532.19
2018-11-02T08:51:38.099Z,101535.30
2018-11-02T08:52:43.768Z,101526.25
2018-11-02T08:53:49.278Z,101533.14
2018-11-02T08:54:54.873Z,101536.99
2018-11-02T08:56:00.358Z,101527.28
2018-11-02T08:57:05.959Z,101530.75
2018-11-02T08:58:11.488Z,101535.20
2018-11-02T08:59:17.017Z,101532.77
2018-11-02T09:00:22.427Z,101537.08
2018-11-02T09:01:27.943Z,101541.05
2018-11-02T09:02:33.445Z,101539.03
2018-11-02T09:03:38.884Z,101548.85
2018-11-02T09:04:44.438Z,101550.69
2018-11-02T09:05:49.955Z,101556.34
2018-11-02T09:06:55.471Z,101557.66
2018-11-02T09:08:01.181Z,101558.22
2018-11-02T09:09:08.897Z,101558.23
2018-11-02T09:10:14.397Z,101562.89
2018-11-02T09:11:20.060Z,101566.25
2018-11-02T09:12:25.586Z,101568.33
2018-11-02T09:13:31.132Z,101566.09
2018-11-02T09:14:36.630Z,101572.41
2018-11-02T09:15:42.120Z,101571.14
2018-11-02T09:16:47.657Z,101574.41
2018-11-02T09:17:53.257Z,101568.84
2018-11-02T09:19:04.969Z,101581.68
2018-11-02T09:20:11.116Z,101578.56
2018-11-02T09:21:16.848Z,101575.60
2018-11-02T09:22:22.621Z,101584.17
2018-11-02T09:23:28.190Z,101584.62
2018-11-02T09:24:33.770Z,101584.50
2018-11-02T09:25:39.325Z,101586.70
2018-11-02T09:26:44.852Z,101584.25
2018-11-02T09:27:50.494Z,101586.33
2018-11-02T09:28:56.740Z,101593.96
2018-11-02T09:30:02.229Z,101591.40
2018-11-02T09:31:07.736Z,101593.48
2018-11-02T09:32:13.262Z,101596.49
2018-11-02T09:33:18.786Z,101602.58
2018-11-02T09:34:24.425Z,101597.44
2018-11-02T09:35:30.123Z,101602.48
2018-11-02T09:36:35.554Z,101605.12
2018-11-02T09:37:41.344Z,101603.92
2018-11-02T09:38:46.928Z,101603.10
2018-11-02T09:39:52.427Z,101601.36
2018-11-02T09:40:57.977Z,101607.41
2018-11-02T09:42:03.512Z,101607.36
2018-11-02T09:43:08.981Z,101611.20
2018-11-02T09:44:14.539Z,101610.34
2018-11-02T09:45:20.109Z,101612.84
2018-11-02T09:46:25.594Z,101614.02
2018-11-02T09:47:31.119Z,101618.19
2018-11-02T09:48:36.595Z,101628.06
2018-11-02T09:49:42.077Z,101625.86
2018-11-02T09:50:47.629Z,101627.03
2018-11-02T09:51:53.123Z,101628.27
2018-11-02T09:52:58.683Z,101630.83
2018-11-02T09:54:04.160Z,101629.19
2018-11-02T09:55:12.785Z,101630.41
2018-11-02T09:56:18.368Z,101634.23
2018-11-02T09:57:23.910Z,101638.02
2018-11-02T09:58:29.380Z,101638.02
2018-11-02T09:59:34.844Z,101640.14
2018-11-02T10:00:40.293Z,101643.64
2018-11-02T10:01:45.793Z,101647.36
2018-11-02T10:02:51.356Z,101645.72
2018-11-02T10:03:57.000Z,101645.67
2018-11-02T10:05:02.504Z,101651.25
2018-11-02T10:06:08.034Z,101648.23
2018-11-02T10:07:13.740Z,101649.84
2018-11-02T10:08:19.368Z,101651.53
2018-11-02T10:09:24.889Z,101657.05
2018-11-02T10:10:30.370Z,101654.80
2018-11-02T10:11:35.840Z,101654.50
2018-11-02T10:12:41.510Z,101658.35
2018-11-02T10:13:46.973Z,101660.08
2018-11-02T10:14:52.452Z,101661.68
2018-11-02T10:15:58.094Z,101662.44
2018-11-02T10:17:03.563Z,101663.73
2018-11-02T10:18:09.195Z,101666.63
2018-11-02T10:19:14.758Z,101664.94
2018-11-02T10:20:20.316Z,101667.41
2018-11-02T10:21:26.120Z,101668.27
2018-11-02T10:22:31.625Z,101667.41
2018-11-02T10:23:37.142Z,101674.20
2018-11-02T10:24:42.649Z,101671.58
2018-11-02T10:25:48.217Z,101676.75
2018-11-02T10:26:53.824Z,101669.36
2018-11-02T10:27:59.418Z,101673.50
2018-11-02T10:29:05.615Z,101672.12
2018-11-02T10:30:13.170Z,101673.85
2018-11-02T10:31:18.800Z,101677.23
2018-11-02T10:32:24.496Z,101680.12
2018-11-02T10:33:30.118Z,101679.31
2018-11-02T10:34:35.701Z,101687.98
2018-11-02T10:35:41.539Z,101688.41
2018-11-02T10:36:46.973Z,101693.12
2018-11-02T10:37:52.881Z,101694.35
2018-11-02T10:38:59.158Z,101697.72
2018-11-02T10:40:06.814Z,101696.31
2018-11-02T10:41:16.847Z,101701.99
2018-11-02T10:42:22.561Z,101696.78
2018-11-02T10:43:30.200Z,101701.05
2018-11-02T10:44:41.147Z,101707.40
2018-11-02T10:45:48.692Z,101701.45
2018-11-02T10:46:54.152Z,101704.83
2018-11-02T10:48:00.041Z,101705.64
2018-11-02T10:49:05.843Z,101707.44
2018-11-02T10:50:11.340Z,101704.50
2018-11-02T10:51:16.892Z,101701.78
2018-11-02T10:52:22.336Z,101699.19
2018-11-02T10:53:27.937Z,101712.88
2018-11-02T10:54:33.899Z,101703.07
2018-11-02T10:55:39.446Z,101706.02
2018-11-02T10:56:45.144Z,101706.02
2018-11-02T10:57:50.625Z,101703.88
2018-11-02T10:58:56.105Z,101706.81
2018-11-02T11:00:01.666Z,101709.20
2018-11-02T11:01:12.565Z,101710.73
2018-11-02T11:02:24.040Z,101713.48
2018-11-02T11:03:29.638Z,101710.46
2018-11-02T11:04:35.379Z,101711.00
2018-11-02T11:05:40.982Z,101716.13
2018-11-02T11:06:46.543Z,101716.13
2018-11-02T11:07:52.029Z,101717.86
2018-11-02T11:08:57.585Z,101718.67
2018-11-02T11:10:03.076Z,101717.53
2018-11-02T11:11:08.577Z,101718.67
2018-11-02T11:12:14.131Z,101715.61
2018-11-02T11:13:20.010Z,101715.95
2018-11-02T11:14:25.218Z,101720.58
2018-11-02T11:15:30.831Z,101721.80
2018-11-02T11:16:36.391Z,101720.91
2018-11-02T11:17:41.893Z,101720.75
2018-11-02T11:18:47.433Z,101725.06
2018-11-02T11:19:52.916Z,101721.20
2018-11-02T11:20:58.445Z,101720.63
2018-11-02T11:22:04.019Z,101723.20
2018-11-02T11:23:09.608Z,101727.30
2018-11-02T11:24:15.115Z,101724.95
2018-11-02T11:25:20.581Z,101725.25
2018-11-02T11:26:26.147Z,101728.59
2018-11-02T11:27:31.718Z,101733.52
2018-11-02T11:28:37.287Z,101741.43
2018-11-02T11:29:42.829Z,101734.89
2018-11-02T11:30:48.334Z,101740.22
2018-11-02T11:31:53.869Z,101740.94
2018-11-02T11:32:59.375Z,101738.41
2018-11-02T11:34:05.697Z,101737.60
2018-11-02T11:35:13.373Z,101739.52
2018-11-02T11:36:18.872Z,101740.20
2018-11-02T11:37:24.462Z,101740.91
2018-11-02T11:38:30.086Z,101744.30
2018-11-02T11:39:35.591Z,101742.95
2018-11-02T11:40:41.222Z,101739.67
2018-11-02T11:41:46.757Z,101742.22
2018-11-02T11:42:52.403Z,101738.67
2018-11-02T11:43:57.896Z,101738.95
2018-11-02T11:45:03.568Z,101741.83
2018-11-02T11:46:09.105Z,101750.00
2018-11-02T11:47:14.585Z,101748.42
2018-11-02T11:48:20.053Z,101751.34
2018-11-02T11:49:25.621Z,101751.61
2018-11-02T11:50:31.233Z,101763.08
2018-11-02T11:51:36.786Z,101756.63
2018-11-02T11:52:42.933Z,101758.17
2018-11-02T11:53:48.417Z,101756.88
2018-11-02T11:54:54.145Z,101763.05
2018-11-02T11:55:59.733Z,101762.98
2018-11-02T11:57:05.208Z,101767.39
2018-11-02T11:58:10.886Z,101764.52
2018-11-02T11:59:16.506Z,101766.55
2018-11-02T12:00:23.369Z,101762.23
2018-11-02T12:01:28.866Z,101767.14
2018-11-02T12:02:34.409Z,101771.48
2018-11-02T12:03:39.906Z,101766.38
2018-11-02T12:04:45.529Z,101773.61
2018-11-02T12:05:51.084Z,101768.83
2018-11-02T12:06:56.557Z,101777.47
2018-11-02T12:08:02.014Z,101774.80
2018-11-02T12:09:09.059Z,101778.34
2018-11-02T12:10:18.801Z,101773.80
2018-11-02T12:11:24.367Z,101777.95
2018-11-02T12:12:29.943Z,101780.08
2018-11-02T12:13:35.468Z,101785.48
2018-11-02T12:14:40.932Z,101787.91
2018-11-02T12:15:46.423Z,101793.45
2018-11-02T12:16:52.006Z,101787.82
2018-11-02T12:17:57.538Z,101792.41
2018-11-02T12:19:03.009Z,101791.12
2018-11-02T12:20:13.037Z,101790.27
2018-11-02T12:21:18.541Z,101794.12
2018-11-02T12:22:24.145Z,101795.06
2018-11-02T12:23:29.719Z,101795.86
2018-11-02T12:24:35.225Z,101801.80
2018-11-02T12:25:40.701Z,101802.30
2018-11-02T12:26:46.164Z,101809.37
2018-11-02T12:27:51.758Z,101805.91
2018-11-02T12:28:57.320Z,101805.53
2018-11-02T12:30:02.726Z,101808.06